KBMCKPIH

Guest
Details From KBMC - Brigham City
To KPIH - POCATELLO RGNL
Flight Number -
Tags generated
Created
Modified
Stats Distance 86 nm / 159 km
Max Altitude 2,400 ft / 732 m
Waypoints 3
Social Downloads 0
Likes 0
Share VATSIM

Download

Looking for another format? Having issues loading an existing format? Contact us
Advertisement - Login to hide

Notes

Basic altitude profile: - Ascent Rate: 2500ft/min - Ascent Speed: 250kts - Cruise Altitude: 35000ft - Cruise Speed: 420kts - Descent Rate: 1500ft/min - Descent Speed: 250kts Options: - Use NATs: yes - Use PACOTS: yes - Use low airways: yes - Use high airways: yes

Route

KBMC BANNO KPIH

ID Type Via Altitude Latitude Longitude Leg Dist Tot Dist Heading (true) Name
O KBMC APT - 0 ft / 0 m 41.55239˚ -112.06222˚ - 0 nm - Brigham City
BANNO FIX - 2,400 ft / 732 m 42.72035˚ -112.60687˚ 74 nm 74 nm 341° / 341° -
O KPIH APT - 0 ft / 0 m 42.90969˚ -112.59686˚ 11 nm 85 nm 2° / 2° POCATELLO RGNL

Altitude Profile

Advertisement - Login to hide

KBMC

Details ICAO KBMC (BMC)
Name Brigham City
Region United States
Timezone America/Denver (UTC-7.0)
Stats Elevation 4,229 ft / 1,289 m (AMSL)
Location 41.552394° -112.062217°
Runways 1
Magnetic Variation 11.604° E

METAR

KBMC 151935Z AUTO 00000KT 5SM CLR 01/M04 A3026 RMK AO1 T00111038

Decode

TAF

Not found

Departure Runways

ID Width Length Bearing (true) Bearing (mag) Surface Threshold Offset Overrun Length
16 98 ft / 30 m 7,511 ft / 2,289 m 179.50° 167.90° Asphalt 0 ft / 0 m 0 ft / 0 m
34 98 ft / 30 m 7,511 ft / 2,289 m 359.50° 347.90° Asphalt 0 ft / 0 m 0 ft / 0 m

KPIH

Details ICAO KPIH (PIH)
Name POCATELLO RGNL
Region United States
Timezone America/Boise (UTC-7.0)
Stats Elevation 4,452 ft / 1,357 m (AMSL)
Location 42.909695° -112.596864°
Runways 2
Magnetic Variation 12.027° E

METAR

KPIH 151918Z 04006KT 3SM R21/4000VP6000FT BR OVC002 M05/M07 A3022 RMK AO2 T10501072

Decode

TAF

TAF KPIH 151726Z 1518/1618 14008KT 1/2SM FZFG OVC002 TEMPO 1518/1522 1SM BR OVC004 FM160400 21010G15KT P6SM VCSH SCT006 BKN020 FM161000 24013KT 5SM -SN BKN020

Decode

Destination Runways

ID Width Length Bearing (true) Bearing (mag) Surface Threshold Offset Overrun Length
03 150 ft / 46 m 9,052 ft / 2,759 m 44.86° 32.83° Asphalt 0 ft / 0 m 0 ft / 0 m
17 100 ft / 30 m 7,154 ft / 2,181 m 179.95° 167.92° Asphalt 0 ft / 0 m 0 ft / 0 m
21 150 ft / 46 m 9,052 ft / 2,759 m 224.88° 212.85° Asphalt 0 ft / 0 m 0 ft / 0 m
35 100 ft / 30 m 7,154 ft / 2,181 m 359.95° 347.92° Asphalt 0 ft / 0 m 0 ft / 0 m

Approach Navaids

Runway Type Ident Frequency Range Bearing (true) Bearing (mag) Slope Elevation
21 Localiser IPIH 110.30 MHz 18 nm / 33 km 224.86° 212.83° - 4,443 ft / 1,354 m (AMSL)
21 Glidescope IPIH 110.30 MHz 10 nm / 19 km 224.87° 212.84° 3.00° 4,450 ft / 1,356 m (AMSL)
21 DME IPIH 110.30 MHz 18 nm / 33 km - - - 4,456 ft / 1,358 m (AMSL)